Category: Interesting Things

IMAG0183

Local North

It was great to be back in the air this past weekend. A cold front had passed through on Friday, bringing with it a high pressure system of nice dry air. This means some...

Checked Out!

Checked Out!

Went flying this morning. The first time in a while, so I did a checkout with one of my favourite instructors.It was a lot of fun, and I forgot how I love to fly....

leakyboats

Thankfully You’re In An Airplane

I’m sure the IFR pilots down under appreciate the sense of humour when doing the SINNK Five Arrival into Brisbane International Airport. Take a look at the approach plate Hopefully Glenn and Lissa don’t...

A Question About TAFs

A Question About TAFs

I’ve been looking at some TAFs from various locations and noticed a weird convention. In the following TAF the validity period contains a time of 2400Z. For example: EFHK 122336Z 1224/1324 05006KT 4000 -SN...

Rare Runway Renumbering

Rare Runway Renumbering

Tampa International Airport will be renumbering their runways next week. The reason being the change in the magnetic variation in the area. The North/South runway will be renamed from 18R/36L to 19R/01L. This doesn’t...

Santa Has Filed His Flight Plan

Santa Has Filed His Flight Plan

I just got word from Nav Canada, that Mr. Claus has filed his ICAO flight plan with them for his departure later this week. Normally they don’t release flight plans to the public, however...